createdAt,value
2019-02-21T00:00:24.256Z,68.05
2019-02-21T00:01:18.460Z,68.34
2019-02-21T00:02:18.281Z,67.80
2019-02-21T00:03:18.313Z,67.77
2019-02-21T00:04:18.523Z,67.86
2019-02-21T00:05:39.354Z,68.05
2019-02-21T00:06:18.371Z,68.44
2019-02-21T00:07:18.445Z,68.53
2019-02-21T00:08:18.384Z,69.10
2019-02-21T00:09:18.386Z,68.53
2019-02-21T00:10:18.423Z,68.44
2019-02-21T00:11:39.442Z,68.34
2019-02-21T00:12:18.454Z,67.77
2019-02-21T00:13:18.478Z,68.53
2019-02-21T00:14:18.481Z,69.10
2019-02-21T00:15:18.539Z,69.10
2019-02-21T00:18:21.769Z,68.98
2019-02-21T00:19:00.934Z,69.35
2019-02-21T00:20:00.798Z,69.01
2019-02-21T00:46:27.374Z,68.34
2019-02-21T00:47:27.149Z,68.05
2019-02-21T00:48:48.196Z,68.24
2019-02-21T00:49:27.222Z,68.78
2019-02-21T00:50:27.245Z,68.88
2019-02-21T00:51:27.225Z,68.78
2019-02-21T00:52:27.574Z,69.35
2019-02-21T00:53:27.270Z,68.50
2019-02-21T00:54:48.311Z,68.50
2019-02-21T00:55:27.959Z,68.59
2019-02-21T00:56:27.305Z,69.07
2019-02-21T00:57:27.315Z,69.10
2019-02-21T00:58:27.343Z,68.44
2019-02-21T00:59:27.350Z,67.96
2019-02-21T01:00:48.399Z,68.40
2019-02-21T01:01:27.396Z,68.21
2019-02-21T01:02:27.395Z,68.59
2019-02-21T01:03:27.422Z,68.30
2019-02-21T01:04:27.436Z,68.30
2019-02-21T01:05:27.447Z,68.98
2019-02-21T01:06:48.487Z,69.51
2019-02-21T01:07:27.528Z,69.64
2019-02-21T01:08:27.492Z,69.07
2019-02-21T01:09:27.515Z,69.35
2019-02-21T01:12:09.791Z,69.17
2019-02-21T01:13:30.809Z,69.93
2019-02-21T01:14:09.822Z,69.70
2019-02-21T01:15:09.919Z,70.65
2019-02-21T01:16:09.857Z,70.84
2019-02-21T01:17:09.854Z,70.65
2019-02-21T01:18:09.918Z,69.54
2019-02-21T01:21:13.288Z,70.94
2019-02-21T01:22:13.306Z,71.17
2019-02-21T01:23:13.320Z,70.84
2019-02-21T01:24:13.487Z,71.32
2019-02-21T01:25:13.336Z,71.07
2019-02-21T01:26:34.376Z,70.69
2019-02-21T01:27:13.407Z,70.12
2019-02-21T01:28:13.446Z,70.18
2019-02-21T01:29:13.410Z,70.84
2019-02-21T01:30:13.424Z,70.69
2019-02-21T01:31:13.461Z,70.02
2019-02-21T01:32:34.474Z,69.35
2019-02-21T01:33:13.481Z,68.91
2019-02-21T01:34:13.516Z,68.98
2019-02-21T01:35:13.512Z,68.88
2019-02-21T01:36:13.533Z,69.07
2019-02-21T01:37:13.542Z,69.17
2019-02-21T01:38:34.624Z,69.07
2019-02-21T01:39:13.565Z,69.54
2019-02-21T01:40:13.578Z,70.08
2019-02-21T01:41:13.592Z,69.54
2019-02-21T01:42:13.628Z,70.37
2019-02-21T01:43:13.624Z,70.56
2019-02-21T01:44:34.670Z,70.18
2019-02-21T01:45:13.677Z,69.83
2019-02-21T01:46:13.680Z,68.88
2019-02-21T01:47:13.721Z,69.13
2019-02-21T01:48:13.713Z,69.54
2019-02-21T01:49:13.730Z,69.54
2019-02-21T01:52:16.784Z,69.26
2019-02-21T01:53:16.814Z,68.78
2019-02-21T01:54:16.826Z,68.69
2019-02-21T01:55:16.859Z,68.40
2019-02-21T01:56:16.945Z,68.21
2019-02-21T01:57:37.883Z,68.98
2019-02-21T01:58:16.893Z,69.99
2019-02-21T01:59:16.937Z,69.54
2019-02-21T02:00:16.915Z,69.07
2019-02-21T02:01:16.927Z,69.45
2019-02-21T02:02:16.962Z,69.17
2019-02-21T02:03:37.997Z,69.79
2019-02-21T02:04:16.988Z,70.18
2019-02-21T02:05:16.992Z,70.75
2019-02-21T02:06:17.001Z,70.84
2019-02-21T02:07:17.022Z,71.51
2019-02-21T02:08:17.033Z,71.70
2019-02-21T02:09:38.083Z,72.08
2019-02-21T02:10:17.078Z,71.22
2019-02-21T02:11:17.233Z,71.42
2019-02-21T02:12:17.114Z,71.70
2019-02-21T02:13:24.575Z,70.84
2019-02-21T02:14:17.169Z,70.37
2019-02-21T02:15:38.221Z,70.65
2019-02-21T02:16:17.172Z,69.89
2019-02-21T02:17:17.174Z,70.27
2019-02-21T02:18:17.191Z,70.65
2019-02-21T02:19:17.290Z,71.03
2019-02-21T02:20:17.228Z,70.94
2019-02-21T02:21:38.258Z,70.65
2019-02-21T02:22:17.265Z,71.13
2019-02-21T02:23:17.281Z,70.94
2019-02-21T02:24:17.288Z,71.61
2019-02-21T02:25:17.310Z,71.13
2019-02-21T02:26:17.329Z,70.84
2019-02-21T02:27:38.372Z,71.22
2019-02-21T02:28:17.378Z,70.75
2019-02-21T02:29:17.371Z,70.65
2019-02-21T02:30:17.389Z,70.56
2019-02-21T02:31:22.572Z,71.70
2019-02-21T02:32:17.410Z,70.75
2019-02-21T02:33:38.441Z,70.37
2019-02-21T02:34:17.450Z,70.02
2019-02-21T02:35:17.488Z,69.26
2019-02-21T02:36:17.503Z,69.07
2019-02-21T02:37:17.515Z,69.42
2019-02-21T02:38:17.531Z,69.07
2019-02-21T02:39:38.572Z,69.23
2019-02-21T02:40:17.542Z,69.60
2019-02-21T02:41:17.650Z,69.89
2019-02-21T02:42:17.592Z,69.70
2019-02-21T02:43:17.591Z,70.75
2019-02-21T02:44:17.613Z,71.28
2019-02-21T02:45:38.652Z,71.80
2019-02-21T02:46:17.638Z,71.98
2019-02-21T02:47:17.696Z,72.08
2019-02-21T02:48:17.665Z,71.80
2019-02-21T02:49:17.692Z,71.42
2019-02-21T02:50:17.706Z,71.03
2019-02-21T02:51:39.332Z,70.84
2019-02-21T02:52:17.726Z,70.08
2019-02-21T02:53:17.757Z,69.70
2019-02-21T02:54:17.759Z,70.94
2019-02-21T02:55:17.770Z,71.03
2019-02-21T02:56:17.852Z,70.65
2019-02-21T02:57:38.999Z,70.18
2019-02-21T02:58:17.833Z,69.99
2019-02-21T02:59:17.854Z,69.42
2019-02-21T03:00:17.866Z,69.79
2019-02-21T03:01:17.875Z,70.62
2019-02-21T03:02:17.877Z,71.70
2019-02-21T03:03:38.910Z,71.09
2019-02-21T03:04:17.919Z,71.67
2019-02-21T03:05:17.935Z,72.05
2019-02-21T03:06:17.967Z,72.14
2019-02-21T03:07:17.970Z,71.57
2019-02-21T03:08:17.977Z,71.32
2019-02-21T03:09:39.000Z,71.00
2019-02-21T03:10:18.026Z,70.94
2019-02-21T03:11:18.029Z,71.19
2019-02-21T03:12:18.038Z,71.67
2019-02-21T03:13:18.054Z,72.62
2019-02-21T03:14:18.088Z,71.70
2019-02-21T03:15:39.096Z,70.75
2019-02-21T03:16:18.122Z,71.28
2019-02-21T03:17:18.128Z,71.86
2019-02-21T03:18:18.141Z,72.33
2019-02-21T03:19:18.168Z,72.14
2019-02-21T03:20:18.160Z,71.67
2019-02-21T03:21:39.198Z,71.38
2019-02-21T03:22:18.202Z,71.76
2019-02-21T03:23:18.363Z,71.67
2019-02-21T03:24:18.236Z,71.86
2019-02-21T03:25:18.241Z,72.81
2019-02-21T03:26:18.268Z,73.28
2019-02-21T03:27:39.315Z,73.47
2019-02-21T03:28:18.303Z,72.52
2019-02-21T03:29:18.305Z,72.52
2019-02-21T03:30:18.317Z,71.95
2019-02-21T03:31:18.349Z,71.67
2019-02-21T03:32:18.374Z,71.38
2019-02-21T03:33:39.395Z,70.81
2019-02-21T03:34:18.379Z,71.13
2019-02-21T03:35:18.403Z,71.38
2019-02-21T03:36:18.418Z,71.95
2019-02-21T03:37:18.445Z,72.52
2019-02-21T03:38:18.436Z,72.62
2019-02-21T03:39:39.480Z,72.81
2019-02-21T03:40:18.596Z,73.28
2019-02-21T03:41:18.514Z,73.28
2019-02-21T03:42:18.503Z,72.14
2019-02-21T03:43:18.543Z,71.67
2019-02-21T03:44:18.553Z,71.67
2019-02-21T03:45:39.567Z,71.09
2019-02-21T03:46:18.590Z,70.94
2019-02-21T03:47:18.593Z,70.81
2019-02-21T03:48:18.601Z,71.28
2019-02-21T03:49:18.615Z,72.05
2019-02-21T03:50:18.660Z,72.52
2019-02-21T03:51:39.648Z,72.90
2019-02-21T03:52:18.659Z,72.71
2019-02-21T03:53:18.693Z,72.52
2019-02-21T03:54:18.697Z,72.42
2019-02-21T03:55:18.734Z,72.62
2019-02-21T03:56:18.715Z,71.67
2019-02-21T03:57:39.747Z,71.67
2019-02-21T03:58:18.743Z,71.67
2019-02-21T03:59:18.778Z,72.14
2019-02-21T04:00:18.784Z,73.10
2019-02-21T04:01:18.794Z,72.24
2019-02-21T04:02:18.823Z,72.52
2019-02-21T04:03:39.839Z,72.52
2019-02-21T04:04:18.840Z,73.00
2019-02-21T04:07:00.855Z,73.95
2019-02-21T04:08:00.846Z,73.57
2019-02-21T04:09:00.893Z,73.57
2019-02-21T04:10:21.976Z,73.47
2019-02-21T04:11:00.879Z,73.32
2019-02-21T04:12:00.914Z,73.19
2019-02-21T04:13:00.916Z,73.57
2019-02-21T04:14:00.956Z,73.32
2019-02-21T04:15:00.947Z,72.37
2019-02-21T04:16:21.973Z,72.85
2019-02-21T04:17:00.963Z,73.13
2019-02-21T04:18:00.979Z,73.22
2019-02-21T04:19:01.029Z,73.38
2019-02-21T04:20:01.157Z,72.94
2019-02-21T04:21:01.028Z,72.56
2019-02-21T04:22:22.066Z,71.98
2019-02-21T04:23:01.070Z,71.89
2019-02-21T04:24:01.083Z,72.75
2019-02-21T04:25:01.086Z,72.90
2019-02-21T04:26:01.224Z,72.94
2019-02-21T04:27:01.172Z,73.13
2019-02-21T04:28:22.146Z,73.03
2019-02-21T04:35:33.278Z,73.61
2019-02-21T04:36:33.269Z,72.94
2019-02-21T04:37:33.291Z,72.94
2019-02-21T04:38:33.378Z,73.03
2019-02-21T04:39:54.337Z,73.22
2019-02-21T04:40:33.343Z,73.41
2019-02-21T04:41:33.465Z,73.00
2019-02-21T04:42:33.371Z,73.00
2019-02-21T04:43:33.384Z,73.47
2019-02-21T04:44:33.405Z,72.85
2019-02-21T04:45:54.483Z,73.47
2019-02-21T04:46:33.432Z,73.13
2019-02-21T04:47:33.447Z,72.46
2019-02-21T04:48:33.460Z,72.27
2019-02-21T04:49:33.541Z,73.03
2019-02-21T04:50:33.499Z,73.03
2019-02-21T04:51:54.533Z,73.13
2019-02-21T04:52:33.521Z,73.32
2019-02-21T04:53:33.543Z,73.89
2019-02-21T04:54:33.570Z,73.41
2019-02-21T04:55:33.574Z,73.32
2019-02-21T04:56:33.584Z,73.03
2019-02-21T04:57:54.606Z,73.41
2019-02-21T04:58:33.614Z,73.03
2019-02-21T04:59:33.683Z,73.13
2019-02-21T05:00:33.651Z,73.89
2019-02-21T05:01:33.680Z,73.99
2019-02-21T05:02:33.672Z,73.51
2019-02-21T05:03:54.697Z,73.95
2019-02-21T05:04:33.712Z,73.70
2019-02-21T05:05:33.722Z,74.08
2019-02-21T05:06:33.739Z,73.99
2019-02-21T05:07:33.747Z,73.99
2019-02-21T05:08:33.764Z,74.90
2019-02-21T05:09:58.204Z,76.14
2019-02-21T05:10:33.795Z,74.65
2019-02-21T05:11:33.811Z,74.18
2019-02-21T05:12:33.869Z,74.37
2019-02-21T05:13:34.133Z,74.90
2019-02-21T05:14:33.875Z,74.71
2019-02-21T05:15:55.041Z,74.90
2019-02-21T05:16:33.900Z,74.52
2019-02-21T05:17:33.893Z,75.28
2019-02-21T05:18:33.922Z,75.47
2019-02-21T05:19:33.932Z,74.99
2019-02-21T05:20:33.948Z,74.37
2019-02-21T05:21:54.974Z,74.08
2019-02-21T05:22:33.978Z,73.99
2019-02-21T05:23:36.612Z,74.43
2019-02-21T05:24:34.095Z,74.71
2019-02-21T05:25:34.014Z,74.52
2019-02-21T05:26:34.038Z,73.95
2019-02-21T05:27:55.074Z,73.95
2019-02-21T05:28:34.070Z,74.62
2019-02-21T05:29:34.080Z,74.33
2019-02-21T05:30:36.261Z,74.27
2019-02-21T05:31:34.229Z,74.27
2019-02-21T05:32:41.026Z,73.99
2019-02-21T05:33:55.168Z,73.89
2019-02-21T05:34:34.165Z,74.24
2019-02-21T05:35:34.222Z,74.43
2019-02-21T05:36:34.196Z,74.62
2019-02-21T05:37:34.198Z,74.43
2019-02-21T05:38:34.233Z,74.62
2019-02-21T05:39:55.259Z,74.80
2019-02-21T05:40:34.253Z,74.71
2019-02-21T05:41:34.401Z,74.71
2019-02-21T05:42:34.293Z,74.43
2019-02-21T05:43:37.105Z,74.90
2019-02-21T05:44:34.316Z,75.28
2019-02-21T05:45:55.410Z,75.38
2019-02-21T05:46:34.353Z,75.95
2019-02-21T05:47:34.358Z,76.23
2019-02-21T05:48:34.406Z,75.47
2019-02-21T05:49:34.402Z,75.28
2019-02-21T05:50:34.397Z,75.19
2019-02-21T05:51:55.446Z,76.23
2019-02-21T05:52:34.450Z,74.99
2019-02-21T05:53:34.451Z,74.62
2019-02-21T05:54:34.487Z,75.47
2019-02-21T05:55:34.477Z,75.95
2019-02-21T05:56:34.489Z,76.71
2019-02-21T05:57:55.534Z,76.23
2019-02-21T05:58:34.531Z,76.52
2019-02-21T05:59:34.557Z,76.52
2019-02-21T06:00:36.751Z,75.51
2019-02-21T06:01:34.737Z,75.04
2019-02-21T06:02:34.588Z,76.04
2019-02-21T06:03:55.618Z,76.46
2019-02-21T06:04:34.634Z,75.89
2019-02-21T06:05:34.664Z,75.76
2019-02-21T06:06:34.649Z,76.23
2019-02-21T06:07:34.679Z,76.14
2019-02-21T06:08:34.689Z,75.85
2019-02-21T06:09:55.707Z,76.14
2019-02-21T06:10:34.700Z,76.23
2019-02-21T06:11:35.365Z,76.42
2019-02-21T06:12:34.736Z,76.61
2019-02-21T06:13:34.759Z,76.33
2019-02-21T06:14:34.772Z,76.14
2019-02-21T06:15:55.798Z,75.76
2019-02-21T06:16:55.821Z,76.23
2019-02-21T06:17:34.827Z,76.37
2019-02-21T06:18:34.827Z,76.27
2019-02-21T06:19:34.856Z,75.28
2019-02-21T06:20:57.617Z,75.19
2019-02-21T06:21:34.878Z,75.19
2019-02-21T06:22:34.962Z,75.28
2019-02-21T06:23:35.067Z,75.38
2019-02-21T06:24:34.923Z,76.33
2019-02-21T06:25:34.939Z,75.76
2019-02-21T06:26:55.972Z,75.85
2019-02-21T06:27:34.967Z,75.28
2019-02-21T06:28:34.993Z,75.28
2019-02-21T06:29:34.995Z,76.42
2019-02-21T06:30:35.025Z,75.95
2019-02-21T06:31:35.038Z,76.61
2019-02-21T06:33:04.559Z,76.23
2019-02-21T06:33:35.099Z,76.04
2019-02-21T06:34:35.088Z,75.95
2019-02-21T06:35:35.113Z,75.95
2019-02-21T06:36:35.116Z,75.79
2019-02-21T06:37:37.676Z,75.95
2019-02-21T06:38:56.143Z,77.03
2019-02-21T06:39:35.165Z,77.09
2019-02-21T06:40:36.561Z,76.71
2019-02-21T06:41:35.202Z,76.81
2019-02-21T06:42:35.206Z,77.28
2019-02-21T06:43:35.321Z,77.47
2019-02-21T06:44:59.310Z,78.52
2019-02-21T06:45:35.240Z,78.33
2019-02-21T06:46:35.268Z,77.09
2019-02-21T06:47:35.275Z,77.85
2019-02-21T06:48:35.287Z,77.95
2019-02-21T06:49:35.306Z,77.47
2019-02-21T06:50:56.332Z,77.56
2019-02-21T06:51:35.332Z,78.04
2019-02-21T06:52:35.349Z,77.95
2019-02-21T06:53:35.375Z,77.85
2019-02-21T06:54:35.404Z,78.52
2019-02-21T06:55:35.409Z,78.33
2019-02-21T06:56:56.413Z,77.95
2019-02-21T06:57:35.423Z,78.71
2019-02-21T06:58:35.442Z,77.95
2019-02-21T06:59:43.300Z,78.04
2019-02-21T07:00:35.483Z,78.33
2019-02-21T07:01:35.475Z,78.61
2019-02-21T07:02:56.562Z,77.95
2019-02-21T07:03:35.540Z,77.95
2019-02-21T07:04:35.565Z,77.76
2019-02-21T07:05:36.959Z,78.61
2019-02-21T07:06:35.575Z,78.99
2019-02-21T07:07:35.584Z,78.52
2019-02-21T07:08:56.678Z,79.09
2019-02-21T07:09:35.601Z,78.80
2019-02-21T07:10:35.635Z,78.23
2019-02-21T07:11:35.638Z,77.37
2019-02-21T07:12:35.645Z,78.52
2019-02-21T07:13:35.672Z,77.95
2019-02-21T07:14:56.696Z,78.71
2019-02-21T07:15:35.702Z,78.14
2019-02-21T07:16:37.349Z,78.23
2019-02-21T07:17:35.719Z,78.42
2019-02-21T07:18:35.808Z,77.76
2019-02-21T07:19:35.748Z,77.76
2019-02-21T07:20:56.794Z,78.04
2019-02-21T07:21:36.630Z,78.04
2019-02-21T07:22:35.808Z,78.23
2019-02-21T07:23:43.166Z,78.04
2019-02-21T07:24:38.340Z,77.85
2019-02-21T07:25:35.857Z,78.04
2019-02-21T07:26:56.883Z,78.33
2019-02-21T07:27:35.876Z,77.76
2019-02-21T07:28:35.904Z,78.52
2019-02-21T07:29:38.538Z,78.90
2019-02-21T07:30:35.915Z,78.04
2019-02-21T07:31:35.949Z,77.76
2019-02-21T07:32:56.970Z,78.42
2019-02-21T07:33:35.971Z,77.95
2019-02-21T07:34:35.983Z,78.33
2019-02-21T07:35:35.991Z,78.17
2019-02-21T07:36:36.015Z,78.33
2019-02-21T07:37:36.028Z,78.17
2019-02-21T07:39:13.930Z,78.08
2019-02-21T07:39:36.569Z,77.80
2019-02-21T07:40:36.088Z,77.89
2019-02-21T07:41:36.099Z,77.76
2019-02-21T07:42:36.105Z,78.23
2019-02-21T07:43:36.116Z,78.14
2019-02-21T07:44:59.589Z,78.04
2019-02-21T07:45:36.575Z,77.98
2019-02-21T07:46:36.176Z,77.70
2019-02-21T07:47:36.197Z,77.61
2019-02-21T07:48:36.632Z,77.51
2019-02-21T07:49:36.227Z,77.03
2019-02-21T07:50:57.315Z,78.23
2019-02-21T07:51:36.260Z,78.14
2019-02-21T07:52:36.262Z,77.95
2019-02-21T07:53:36.297Z,77.47
2019-02-21T07:54:36.292Z,78.04
2019-02-21T07:55:36.311Z,77.89
2019-02-21T07:56:57.329Z,77.95
2019-02-21T07:57:36.345Z,77.61
2019-02-21T07:58:36.404Z,77.51
2019-02-21T07:59:36.363Z,77.13
2019-02-21T08:00:36.409Z,77.13
2019-02-21T08:01:36.405Z,76.94
2019-02-21T08:02:57.430Z,77.13
2019-02-21T08:04:37.163Z,77.03
2019-02-21T08:05:36.489Z,77.32
2019-02-21T08:06:36.483Z,76.27
2019-02-21T08:07:36.507Z,76.65
2019-02-21T08:08:57.519Z,76.46
2019-02-21T08:09:36.542Z,77.32
2019-02-21T08:10:36.694Z,76.37
2019-02-21T08:11:36.562Z,77.13
2019-02-21T08:12:36.575Z,76.75
2019-02-21T08:13:36.616Z,77.03
2019-02-21T08:14:57.718Z,76.75
2019-02-21T08:15:36.613Z,76.37
2019-02-21T08:16:36.626Z,76.56
2019-02-21T08:17:36.650Z,75.79
2019-02-21T08:18:36.662Z,75.93
2019-02-21T08:19:36.686Z,75.26
2019-02-21T08:20:57.717Z,75.16
2019-02-21T08:21:36.784Z,75.84
2019-02-21T08:22:36.725Z,75.32
2019-02-21T08:23:36.763Z,76.08
2019-02-21T08:24:36.777Z,75.84
2019-02-21T08:25:36.847Z,75.99
2019-02-21T08:26:57.817Z,75.26
2019-02-21T08:27:36.810Z,75.26
2019-02-21T08:28:36.828Z,75.99
2019-02-21T08:29:36.843Z,75.16
2019-02-21T08:30:37.020Z,75.04
2019-02-21T08:31:36.880Z,75.70
2019-02-21T08:32:57.898Z,75.89
2019-02-21T08:33:36.981Z,75.26
2019-02-21T08:34:36.941Z,74.79
2019-02-21T08:35:36.950Z,74.98
2019-02-21T08:36:36.947Z,74.98
2019-02-21T08:37:36.964Z,74.31
2019-02-21T08:38:58.028Z,74.98
2019-02-21T08:39:36.997Z,74.02
2019-02-21T08:40:37.209Z,74.06
2019-02-21T08:41:37.047Z,73.30
2019-02-21T08:42:37.054Z,73.30
2019-02-21T08:43:37.395Z,73.58
2019-02-21T08:44:58.112Z,72.44
2019-02-21T08:45:37.107Z,72.57
2019-02-21T08:46:37.133Z,72.25
2019-02-21T08:47:37.272Z,72.00
2019-02-21T08:48:37.174Z,70.95
2019-02-21T08:49:37.164Z,70.67
2019-02-21T08:50:58.204Z,69.93
2019-02-21T08:51:37.203Z,69.62
2019-02-21T08:52:37.226Z,70.28
2019-02-21T08:53:37.259Z,70.95
2019-02-21T08:54:37.258Z,70.32
2019-02-21T08:55:37.267Z,69.84
2019-02-21T08:56:58.306Z,69.65
2019-02-21T08:57:37.441Z,69.37
2019-02-21T08:58:37.322Z,68.44
2019-02-21T08:59:37.338Z,68.63
2019-02-21T09:00:37.373Z,67.87
2019-02-21T09:01:37.371Z,67.87
2019-02-21T09:02:58.404Z,68.06
2019-02-21T09:03:37.443Z,67.14
2019-02-21T09:04:37.508Z,66.47
2019-02-21T09:05:37.457Z,66.25
2019-02-21T09:06:37.461Z,66.47
2019-02-21T09:07:37.485Z,66.85
2019-02-21T09:08:58.518Z,66.72
2019-02-21T09:09:37.518Z,66.56
2019-02-21T09:10:37.555Z,65.30
2019-02-21T09:11:37.547Z,63.57
2019-02-21T09:12:37.569Z,63.29
2019-02-21T09:13:37.619Z,63.00
2019-02-21T09:14:58.638Z,62.81
2019-02-21T09:15:37.644Z,62.27
2019-02-21T09:16:37.838Z,61.25
2019-02-21T09:17:37.687Z,60.86
2019-02-21T09:18:37.684Z,61.15
2019-02-21T09:19:37.748Z,60.48
2019-02-21T09:20:58.789Z,60.00
2019-02-21T09:21:37.739Z,60.22
2019-02-21T09:22:37.766Z,59.01
2019-02-21T09:23:37.780Z,58.62
2019-02-21T09:24:42.021Z,58.15
2019-02-21T09:25:37.816Z,57.95
2019-02-21T09:27:00.230Z,58.17
2019-02-21T09:27:37.870Z,56.48
2019-02-21T09:28:37.870Z,55.87
2019-02-21T09:29:37.891Z,57.09
2019-02-21T09:30:37.912Z,60.06
2019-02-21T09:31:37.924Z,62.71
2019-02-21T09:32:58.970Z,64.50
2019-02-21T09:33:37.973Z,65.45
2019-02-21T09:34:37.992Z,64.53
2019-02-21T09:35:38.011Z,64.40
2019-02-21T09:36:38.132Z,65.23
2019-02-21T09:37:38.047Z,66.22
2019-02-21T09:38:59.112Z,65.30
2019-02-21T09:39:38.088Z,64.69
2019-02-21T09:40:38.101Z,65.23
2019-02-21T09:41:38.119Z,66.00
2019-02-21T09:42:38.143Z,66.38
2019-02-21T09:43:38.219Z,66.28
2019-02-21T09:44:59.234Z,67.05
2019-02-21T09:45:38.210Z,68.00
2019-02-21T09:46:40.562Z,68.48
2019-02-21T09:47:38.216Z,68.10
2019-02-21T09:48:38.235Z,66.99
2019-02-21T09:49:38.278Z,66.99
2019-02-21T09:50:59.300Z,67.62
2019-02-21T09:51:38.297Z,68.19
2019-02-21T09:52:38.317Z,68.57
2019-02-21T09:53:38.340Z,68.48
2019-02-21T09:54:38.351Z,68.29
2019-02-21T09:55:38.378Z,68.67
2019-02-21T09:56:59.422Z,68.44
2019-02-21T09:57:38.416Z,68.76
2019-02-21T09:58:38.434Z,68.92
2019-02-21T09:59:38.448Z,69.21
2019-02-21T10:00:38.459Z,69.62
2019-02-21T10:01:38.474Z,69.24
2019-02-21T10:02:59.668Z,68.48
2019-02-21T10:03:38.528Z,68.48
2019-02-21T10:04:38.537Z,68.13
2019-02-21T10:05:38.558Z,67.46
2019-02-21T10:06:38.574Z,66.25
2019-02-21T10:07:38.591Z,65.42
2019-02-21T10:08:59.617Z,64.43
2019-02-21T10:09:38.627Z,64.95
2019-02-21T10:10:38.655Z,65.36
2019-02-21T10:11:38.694Z,65.84
2019-02-21T10:12:38.696Z,66.95
2019-02-21T10:13:38.721Z,67.18
2019-02-21T10:14:59.752Z,68.00
2019-02-21T10:15:38.730Z,68.04
2019-02-21T10:16:38.755Z,67.18
2019-02-21T10:17:38.776Z,65.52
2019-02-21T10:18:38.959Z,64.85
2019-02-21T10:19:38.809Z,64.75
2019-02-21T10:20:59.852Z,63.67
2019-02-21T10:21:38.870Z,60.57
2019-02-21T10:22:38.866Z,58.62
2019-02-21T10:23:38.893Z,58.20
2019-02-21T10:24:38.919Z,57.06
2019-02-21T10:25:38.922Z,57.12
2019-02-21T10:26:59.963Z,59.27
2019-02-21T10:27:38.976Z,61.18
2019-02-21T10:28:39.114Z,61.28
2019-02-21T10:29:39.021Z,62.01
2019-02-21T10:30:39.012Z,62.14
2019-02-21T10:31:39.032Z,61.50
2019-02-21T10:33:00.115Z,59.61
2019-02-21T10:33:46.522Z,58.37
2019-02-21T10:34:43.053Z,58.62
2019-02-21T10:35:39.107Z,60.03
2019-02-21T10:36:39.123Z,60.99
2019-02-21T10:37:39.153Z,62.04
2019-02-21T10:39:00.202Z,62.52
2019-02-21T10:39:39.187Z,61.98
2019-02-21T10:40:39.203Z,60.19
2019-02-21T10:41:39.223Z,58.14
2019-02-21T10:42:39.232Z,57.21
2019-02-21T10:43:39.278Z,55.60
2019-02-21T10:45:02.657Z,54.45
2019-02-21T10:45:47.472Z,53.68
2019-02-21T10:46:39.327Z,53.32
2019-02-21T10:47:39.371Z,53.78
2019-02-21T10:48:39.462Z,54.04
2019-02-21T10:49:39.401Z,54.04
2019-02-21T10:51:00.434Z,53.58
2019-02-21T10:51:39.431Z,52.68
2019-02-21T10:52:41.589Z,51.86
2019-02-21T10:53:39.463Z,52.31
2019-02-21T10:54:39.512Z,54.23
2019-02-21T10:55:39.499Z,54.21
2019-02-21T10:57:00.533Z,54.13
2019-02-21T10:57:39.541Z,53.01
2019-02-21T10:58:39.574Z,52.81
2019-02-21T10:59:46.791Z,53.75
2019-02-21T11:00:39.626Z,54.58
2019-02-21T11:01:39.635Z,56.09
2019-02-21T11:03:00.664Z,56.93
2019-02-21T11:03:39.660Z,58.62
2019-02-21T11:04:42.101Z,58.49
2019-02-21T11:05:39.698Z,56.44
2019-02-21T11:06:39.723Z,53.70
2019-02-21T11:07:39.765Z,51.84
2019-02-21T11:09:00.784Z,50.87
2019-02-21T11:09:39.798Z,51.23
2019-02-21T11:10:39.877Z,52.24
2019-02-21T11:11:39.820Z,52.79
2019-02-21T11:12:39.854Z,53.85
2019-02-21T11:13:39.876Z,54.42
2019-02-21T11:15:00.909Z,54.97
2019-02-21T11:15:42.071Z,56.02
2019-02-21T11:16:39.923Z,56.38
2019-02-21T11:17:39.974Z,57.15
2019-02-21T11:18:39.969Z,57.53
2019-02-21T11:19:39.982Z,57.92
2019-02-21T11:21:01.040Z,57.98
2019-02-21T11:21:40.035Z,58.11
2019-02-21T11:22:40.062Z,57.72
2019-02-21T11:23:40.078Z,57.24
2019-02-21T11:24:40.106Z,57.34
2019-02-21T11:25:40.130Z,57.43
2019-02-21T11:27:01.158Z,57.79
2019-02-21T11:27:40.412Z,58.08
2019-02-21T11:28:40.175Z,58.46
2019-02-21T11:29:40.227Z,58.81
2019-02-21T11:30:40.287Z,59.58
2019-02-21T11:31:40.273Z,59.75
2019-02-21T11:33:01.354Z,60.41
2019-02-21T11:33:40.294Z,60.80
2019-02-21T11:34:40.311Z,61.18
2019-02-21T11:35:40.350Z,61.28
2019-02-21T11:36:40.395Z,62.01
2019-02-21T11:37:44.290Z,62.01
2019-02-21T11:39:01.396Z,62.11
2019-02-21T11:39:40.405Z,62.11
2019-02-21T11:40:40.468Z,62.68
2019-02-21T11:41:40.477Z,62.68
2019-02-21T11:42:40.471Z,62.68
2019-02-21T11:43:40.490Z,62.59
2019-02-21T11:45:01.519Z,63.23
2019-02-21T11:45:40.518Z,63.51
2019-02-21T11:46:40.541Z,63.70
2019-02-21T11:47:40.565Z,63.89
2019-02-21T11:48:40.594Z,63.60
2019-02-21T11:49:40.600Z,63.60
2019-02-21T11:51:01.752Z,63.89
2019-02-21T11:51:40.681Z,63.89
2019-02-21T11:52:40.658Z,64.18
2019-02-21T11:53:40.671Z,64.18
2019-02-21T11:54:40.698Z,63.80
2019-02-21T11:55:40.711Z,64.37
2019-02-21T11:57:01.754Z,64.37
2019-02-21T11:57:40.763Z,64.37
2019-02-21T11:58:40.790Z,63.99
2019-02-21T11:59:40.885Z,64.31
2019-02-21T12:00:40.809Z,64.02
2019-02-21T12:01:40.829Z,64.22
2019-02-21T12:03:01.875Z,64.31
2019-02-21T12:03:40.875Z,63.86
2019-02-21T12:04:40.893Z,63.57
2019-02-21T12:05:40.918Z,63.76
2019-02-21T12:06:40.942Z,63.76
2019-02-21T12:07:41.045Z,63.10
2019-02-21T12:09:02.015Z,62.62
2019-02-21T12:09:41.036Z,62.71
2019-02-21T12:10:41.005Z,62.43
2019-02-21T12:11:41.038Z,62.43
2019-02-21T12:12:41.062Z,62.43
2019-02-21T12:13:41.072Z,61.88
2019-02-21T12:15:02.109Z,60.28
2019-02-21T12:15:41.101Z,59.42
2019-02-21T12:16:41.135Z,58.39
2019-02-21T12:17:42.834Z,59.68
2019-02-21T12:18:41.164Z,60.73
2019-02-21T12:19:41.265Z,60.83
2019-02-21T12:21:02.227Z,60.93
2019-02-21T12:21:41.222Z,61.28
2019-02-21T12:22:41.239Z,61.37
2019-02-21T12:23:41.266Z,62.04
2019-02-21T12:24:41.301Z,62.14
2019-02-21T12:25:41.312Z,62.23
2019-02-21T12:27:02.332Z,62.23
2019-02-21T12:27:41.369Z,62.62
2019-02-21T12:28:41.363Z,62.71
2019-02-21T12:29:41.389Z,62.14
2019-02-21T12:30:41.413Z,62.04
2019-02-21T12:31:41.451Z,62.04
2019-02-21T12:33:02.523Z,62.43
2019-02-21T12:33:41.478Z,62.04
2019-02-21T12:34:41.482Z,61.66
2019-02-21T12:35:41.511Z,61.18
2019-02-21T12:36:41.593Z,61.28
2019-02-21T12:37:41.545Z,61.69
2019-02-21T12:39:02.587Z,61.76
2019-02-21T12:39:41.591Z,61.60
2019-02-21T12:40:41.599Z,61.57
2019-02-21T12:41:41.632Z,61.88
2019-02-21T12:42:41.644Z,61.85
2019-02-21T12:43:41.676Z,61.66
2019-02-21T12:45:02.699Z,61.94
2019-02-21T12:45:41.702Z,61.66
2019-02-21T12:46:41.763Z,61.28
2019-02-21T12:47:49.701Z,61.28
2019-02-21T12:48:41.887Z,61.66
2019-02-21T12:49:41.789Z,61.76
2019-02-21T12:51:02.828Z,62.04
2019-02-21T12:51:41.825Z,62.04
2019-02-21T12:52:41.839Z,62.14
2019-02-21T12:53:41.858Z,63.00
2019-02-21T12:54:41.880Z,62.62
2019-02-21T12:55:41.899Z,62.68
2019-02-21T12:57:02.944Z,63.00
2019-02-21T12:57:41.954Z,63.10
2019-02-21T12:58:42.061Z,63.48
2019-02-21T12:59:41.973Z,63.29
2019-02-21T13:00:42.014Z,63.39
2019-02-21T13:01:42.031Z,63.76
2019-02-21T13:03:03.069Z,63.54
2019-02-21T13:03:42.071Z,64.02
2019-02-21T13:04:42.074Z,64.22
2019-02-21T13:05:44.511Z,63.93
2019-02-21T13:06:42.124Z,64.22
2019-02-21T13:07:42.150Z,64.12
2019-02-21T13:09:03.172Z,64.12
2019-02-21T13:09:42.173Z,64.22
2019-02-21T13:10:42.201Z,63.93
2019-02-21T13:11:42.237Z,63.83
2019-02-21T13:12:42.226Z,64.02
2019-02-21T13:13:42.253Z,64.22
2019-02-21T13:15:03.284Z,64.02
2019-02-21T13:15:42.384Z,64.40
2019-02-21T13:16:42.307Z,64.31
2019-02-21T13:17:42.326Z,64.59
2019-02-21T13:18:42.354Z,64.40
2019-02-21T13:19:42.378Z,64.31
2019-02-21T13:21:03.397Z,64.40
2019-02-21T13:21:42.400Z,64.88
2019-02-21T13:22:42.435Z,64.34
2019-02-21T13:23:42.987Z,64.15
2019-02-21T13:24:42.473Z,63.96
2019-02-21T13:25:42.520Z,63.48
2019-02-21T13:27:03.511Z,64.25
2019-02-21T13:27:42.563Z,63.96
2019-02-21T13:28:42.559Z,63.76
2019-02-21T13:29:42.570Z,63.76
2019-02-21T13:30:42.612Z,63.57
2019-02-21T13:31:42.636Z,63.42
2019-02-21T13:33:03.631Z,63.39
2019-02-21T13:33:42.634Z,63.60
2019-02-21T13:34:42.670Z,63.60